.
WxDataArchive / Data Records for 2010-02-07
2010-02-06 February 2010 2010-02-08

Data Records for Sunday, 07 February 2010

Time	Temp	Chill	HIndex	Humid	Dewpt	 Wind 	HiWind	WindDir	Rain 	Barom 
-----	----	-----	------	-----	-----	------	------	-------	-----	----- 
00:00	18.1	18.1	18.1	76	11.8	0	1	135	0.00	30.190 
00:05	18.1	18.1	18.1	76	11.8	0	2	135	0.00	30.190 
00:10	18.1	18.1	18.1	76	11.8	0	2	135	0.00	30.190 
00:15	18.3	18.3	18.3	76	12.0	0	2	68	0.00	30.193 
00:20	18.3	18.3	18.3	76	12.0	0	1	68	0.00	30.193 
00:25	18.3	18.3	18.3	76	12.0	0	1	68	0.00	30.193 
00:30	18.3	18.3	18.3	76	12.0	0	2	68	0.00	30.194 
00:35	18.1	18.1	18.1	76	11.8	0	1	68	0.00	30.194 
00:40	18.1	18.1	18.1	76	11.8	0	1	68	0.00	30.194 
00:45	18.0	18.0	18.0	76	11.7	0	1	68	0.00	30.191 
00:50	17.8	17.8	17.8	77	11.8	0	0	---	0.00	30.191 
00:55	17.7	17.7	17.7	77	11.7	0	1	68	0.00	30.191 
01:00	17.5	17.5	17.5	77	11.5	0	0	---	0.00	30.190 
01:05	17.3	17.3	17.3	77	11.3	0	0	---	0.00	30.190 
01:10	17.2	17.2	17.2	78	11.5	0	0	---	0.00	30.190 
01:15	17.0	17.0	17.0	77	11.1	0	0	---	0.00	30.186 
01:20	16.9	16.9	16.9	77	11.0	0	0	---	0.00	30.186 
01:25	16.7	16.7	16.7	78	11.1	0	0	---	0.00	30.186 
01:30	16.5	16.5	16.5	78	10.9	0	0	---	0.00	30.191 
01:35	16.7	16.7	16.7	79	11.3	0	1	68	0.00	30.191 
01:40	16.7	16.7	16.7	79	11.3	0	0	---	0.00	30.191 
01:45	16.5	16.5	16.5	79	11.1	0	0	---	0.00	30.189 
01:50	16.4	16.4	16.4	79	11.0	0	0	---	0.00	30.189 
01:55	16.4	16.4	16.4	79	11.0	0	0	---	0.00	30.189 
02:00	16.2	16.2	16.2	79	10.9	0	0	---	0.00	30.193 
02:05	16.1	16.1	16.1	79	10.8	0	0	---	0.00	30.193 
02:10	16.1	16.1	16.1	79	10.8	0	0	---	0.00	30.193 
02:15	15.9	15.9	15.9	80	10.8	0	0	---	0.00	30.188 
02:20	15.7	15.7	15.7	80	10.6	0	0	---	0.00	30.188 
02:25	15.6	15.6	15.6	80	10.6	0	0	---	0.00	30.188 
02:30	15.4	15.4	15.4	80	10.4	0	0	---	0.00	30.189 
02:35	15.4	15.4	15.4	81	10.6	0	0	---	0.00	30.189 
02:40	15.4	15.4	15.4	81	10.6	0	0	---	0.00	30.189 
02:45	15.2	15.2	15.2	81	10.4	0	0	---	0.00	30.187 
02:50	15.2	15.2	15.2	81	10.4	0	0	---	0.00	30.187 
02:55	15.2	15.2	15.2	81	10.4	0	0	---	0.00	30.187 
03:00	15.4	15.4	15.4	82	10.9	0	0	---	0.00	30.188 
03:05	15.4	15.4	15.4	82	10.9	0	0	---	0.00	30.188 
03:10	15.4	15.4	15.4	81	10.6	0	0	---	0.00	30.188 
03:15	15.4	15.4	15.4	82	10.9	0	1	68	0.00	30.189 
03:20	15.4	15.4	15.4	81	10.6	0	0	---	0.00	30.189 
03:25	15.4	15.4	15.4	81	10.6	0	0	---	0.00	30.189 
03:30	15.4	15.4	15.4	81	10.6	0	0	---	0.00	30.187 
03:35	15.2	15.2	15.2	81	10.4	0	0	---	0.00	30.187 
03:40	15.1	15.1	15.1	81	10.3	0	0	---	0.00	30.187 
03:45	14.9	14.9	14.9	81	10.1	0	0	---	0.00	30.187 
03:50	14.6	14.6	14.6	81	9.9	0	0	---	0.00	30.187 
03:55	14.4	14.4	14.4	81	9.7	0	0	---	0.00	30.187 
04:00	14.1	14.1	14.1	81	9.4	0	0	---	0.00	30.185 
04:05	14.0	14.0	14.0	81	9.3	0	0	---	0.00	30.185 
04:10	13.8	13.8	13.8	82	9.3	0	0	---	0.00	30.185 
04:15	13.6	13.6	13.6	82	9.1	0	0	---	0.00	30.189 
04:20	13.6	13.6	13.6	83	9.4	0	0	---	0.00	30.189 
04:25	13.6	13.6	13.6	83	9.4	0	0	---	0.00	30.189 
04:30	13.6	13.6	13.6	83	9.4	0	0	---	0.00	30.192 
04:35	13.6	13.6	13.6	83	9.4	0	0	---	0.00	30.192 
04:40	13.5	13.5	13.5	84	9.6	0	0	---	0.00	30.192 
04:45	13.5	13.5	13.5	84	9.6	0	0	---	0.00	30.192 
04:50	13.3	13.3	13.3	84	9.4	0	0	---	0.00	30.192 
04:55	13.1	13.1	13.1	84	9.2	0	0	---	0.00	30.192 
05:00	12.9	12.9	12.9	84	9.0	0	0	---	0.00	30.193 
05:05	12.8	12.8	12.8	84	8.9	0	0	---	0.00	30.193 
05:10	12.6	12.6	12.6	84	8.7	0	0	---	0.00	30.193 
05:15	12.6	12.6	12.6	84	8.7	0	0	---	0.00	30.203 
05:20	12.6	12.6	12.6	84	8.7	0	0	---	0.00	30.203 
05:25	12.6	12.6	12.6	85	9.0	0	0	---	0.00	30.203 
05:30	12.6	12.6	12.6	85	9.0	0	0	---	0.00	30.207 
05:35	12.6	12.6	12.6	85	9.0	0	0	---	0.00	30.207 
05:40	12.6	12.6	12.6	85	9.0	0	0	---	0.00	30.207 
05:45	12.6	12.6	12.6	85	9.0	0	0	---	0.00	30.205 
05:50	12.8	12.8	12.8	86	9.4	0	0	---	0.00	30.205 
05:55	12.8	12.8	12.8	86	9.4	0	0	---	0.00	30.205 
06:00	12.9	12.9	12.9	86	9.5	0	0	---	0.00	30.204 
06:05	12.8	12.8	12.8	86	9.4	0	0	---	0.00	30.204 
06:10	12.9	12.9	12.9	86	9.5	0	0	---	0.00	30.204 
06:15	12.9	12.9	12.9	86	9.5	0	0	---	0.00	30.207 
06:20	13.1	13.1	13.1	86	9.7	0	0	---	0.00	30.207 
06:25	13.1	13.1	13.1	86	9.7	0	0	---	0.00	30.207 
06:30	13.1	13.1	13.1	86	9.7	0	0	---	0.00	30.206 
06:35	13.3	13.3	13.3	87	10.2	0	0	---	0.00	30.206 
06:40	13.5	13.5	13.5	87	10.4	0	1	68	0.00	30.206 
06:45	13.5	13.5	13.5	87	10.4	0	0	---	0.00	30.208 
06:50	13.6	13.6	13.6	87	10.5	0	0	---	0.00	30.208 
06:55	13.6	13.6	13.6	87	10.5	0	0	---	0.00	30.208 
07:00	13.6	13.6	13.6	86	10.2	0	0	---	0.00	30.209 
07:05	13.5	13.5	13.5	86	10.1	0	1	68	0.00	30.209 
07:10	13.5	13.5	13.5	86	10.1	0	1	68	0.00	30.209 
07:15	13.5	13.5	13.5	86	10.1	0	0	---	0.00	30.219 
07:20	13.5	13.5	13.5	86	10.1	0	0	---	0.00	30.219 
07:25	13.5	13.5	13.5	86	10.1	0	1	68	0.00	30.219 
07:30	13.5	13.5	13.5	86	10.1	0	1	68	0.00	30.224 
07:35	13.5	13.5	13.5	86	10.1	0	0	---	0.00	30.224 
07:40	13.5	13.5	13.5	86	10.1	0	0	---	0.00	30.224 
07:45	13.5	13.5	13.5	86	10.1	0	0	---	0.00	30.226 
07:50	13.3	13.3	13.3	86	9.9	0	0	---	0.00	30.226 
07:55	13.3	13.3	13.3	86	9.9	0	0	---	0.00	30.226 
08:00	13.3	13.3	13.3	86	9.9	0	0	---	0.00	30.232 
08:05	13.3	13.3	13.3	86	9.9	0	0	---	0.00	30.232 
08:10	13.3	13.3	13.3	86	9.9	0	0	---	0.00	30.232 
08:15	13.5	13.5	13.5	86	10.1	0	0	---	0.00	30.237 
08:20	13.6	13.6	13.6	86	10.2	0	0	---	0.00	30.237 
08:25	14.0	14.0	14.0	86	10.6	0	0	---	0.00	30.237 
08:30	14.3	14.3	14.3	86	10.9	0	1	68	0.00	30.238 
08:35	14.4	14.4	14.4	86	11.0	0	0	---	0.00	30.238 
08:40	14.8	14.8	14.8	86	11.4	0	1	68	0.00	30.238 
08:45	15.2	15.2	15.2	86	11.8	0	2	90	0.00	30.237 
08:50	15.7	15.7	15.7	85	12.0	0	1	292	0.00	30.237 
08:55	16.2	16.2	16.2	84	12.2	0	1	292	0.00	30.237 
09:00	16.7	16.7	16.7	83	12.5	0	1	292	0.00	30.235 
09:05	17.0	17.0	17.0	82	12.5	0	1	292	0.00	30.235 
09:10	17.5	17.5	17.5	81	12.7	0	2	292	0.00	30.235 
09:15	18.0	18.0	18.0	79	12.6	0	1	292	0.00	30.239 
09:20	18.4	18.4	18.4	77	12.4	0	2	292	0.00	30.239 
09:25	18.6	18.6	18.6	77	12.6	0	2	22	0.00	30.239 
09:30	18.9	18.9	18.9	75	12.3	0	1	22	0.00	30.239 
09:35	18.9	18.9	18.9	74	12.0	0	1	22	0.00	30.239 
09:40	19.1	19.1	19.1	74	12.2	0	2	22	0.00	30.239 
09:45	19.9	19.9	19.9	73	12.7	0	2	22	0.00	30.242 
09:50	20.3	20.3	20.3	72	12.7	0	2	22	0.00	30.242 
09:55	20.6	20.6	20.6	71	12.7	0	4	22	0.00	30.242 
10:00	21.0	21.0	21.0	70	12.8	0	2	22	0.00	30.240 
10:05	21.3	21.3	21.3	69	12.7	0	1	0	0.00	30.240 
10:10	21.6	21.6	21.6	69	13.0	0	2	202	0.00	30.240 
10:15	21.9	21.9	21.9	68	13.0	0	1	180	0.00	30.239 
10:20	22.1	22.1	22.1	68	13.2	0	2	248	0.00	30.239 
10:25	22.4	22.4	22.4	67	13.1	0	2	248	0.00	30.239 
10:30	22.5	22.5	22.5	66	12.9	0	2	248	0.00	30.246 
10:35	22.9	22.9	22.9	67	13.6	0	1	248	0.00	30.246 
10:40	22.9	22.9	22.9	66	13.3	0	2	248	0.00	30.246 
10:45	22.7	22.7	22.7	67	13.4	1	3	248	0.00	30.245 
10:50	22.7	22.7	22.7	67	13.4	0	1	248	0.01	30.245 
10:55	22.7	22.7	22.7	68	13.8	1	5	90	0.00	30.245 
11:00	22.9	22.9	22.9	67	13.6	1	3	112	0.00	30.247 
11:05	23.0	23.0	23.0	68	14.0	2	5	112	0.00	30.247 
11:10	22.9	22.9	22.9	68	13.9	2	6	90	0.00	30.247 
11:15	22.9	22.9	22.9	68	13.9	0	2	90	0.00	30.250 
11:20	23.3	23.3	23.3	69	14.7	1	4	90	0.01	30.250 
11:25	23.5	23.5	23.5	69	14.9	1	3	90	0.00	30.250 
11:30	23.3	23.3	23.3	69	14.7	1	4	90	0.00	30.251 
11:35	23.3	23.3	23.3	69	14.7	1	5	90	0.00	30.251 
11:40	23.5	23.5	23.5	69	14.9	1	3	90	0.00	30.251 
11:45	23.6	23.6	23.6	69	14.9	0	2	90	0.00	30.249 
11:50	23.9	23.9	23.9	69	15.2	0	1	90	0.00	30.249 
11:55	24.1	24.1	24.1	69	15.4	0	1	90	0.00	30.249 
12:00	24.2	24.2	24.2	68	15.2	0	2	90	0.00	30.245 
12:05	24.4	24.4	24.4	68	15.4	1	5	90	0.00	30.245 
12:10	24.1	24.1	24.1	69	15.4	2	4	90	0.01	30.245 
12:15	23.6	23.6	23.6	70	15.3	2	5	90	0.00	30.237 
12:20	23.6	23.6	23.6	70	15.3	1	3	112	0.00	30.237 
12:25	23.9	23.9	23.9	70	15.6	0	3	112	0.00	30.237 
12:30	24.2	24.2	24.2	69	15.5	1	4	112	0.00	30.233 
12:35	24.4	24.4	24.4	70	16.0	1	5	112	0.00	30.233 
12:40	24.5	24.5	24.5	69	15.8	1	3	112	0.00	30.233 
12:45	24.8	24.8	24.8	68	15.8	0	2	90	0.00	30.228 
12:50	25.0	25.0	25.0	67	15.6	1	4	90	0.00	30.228 
12:55	25.1	25.1	25.1	68	16.1	1	3	90	0.00	30.228 
13:00	25.3	25.3	25.3	66	15.6	1	3	90	0.00	30.220 
13:05	25.1	25.1	25.1	66	15.4	1	3	90	0.00	30.220 
13:10	25.1	25.1	25.1	66	15.4	1	6	90	0.00	30.220 
13:15	25.4	25.4	25.4	66	15.7	1	5	90	0.00	30.219 
13:20	25.6	25.6	25.6	66	15.8	1	4	90	0.00	30.219 
13:25	26.0	26.0	26.0	66	16.2	1	4	90	0.00	30.219 
13:30	26.4	26.4	26.4	65	16.3	1	5	112	0.00	30.210 
13:35	26.7	26.7	26.7	65	16.5	1	5	112	0.00	30.210 
13:40	26.6	26.6	26.6	64	16.1	1	4	90	0.00	30.210 
13:45	26.3	26.3	26.3	65	16.2	2	4	90	0.00	30.203 
13:50	26.0	26.0	26.0	65	15.9	2	5	112	0.00	30.203 
13:55	25.8	25.8	25.8	65	15.7	2	5	112	0.00	30.203 
14:00	26.0	26.0	26.0	66	16.2	1	4	112	0.00	30.202 
14:05	26.1	26.1	26.1	66	16.3	1	4	112	0.00	30.202 
14:10	26.4	26.4	26.4	64	15.9	1	2	112	0.00	30.202 
14:15	26.4	26.4	26.4	64	15.9	1	5	112	0.00	30.201 
14:20	26.4	26.4	26.4	66	16.6	2	5	112	0.00	30.201 
14:25	26.0	26.0	26.0	66	16.2	3	6	112	0.00	30.201 
14:30	26.0	26.0	26.0	67	16.6	1	7	112	0.00	30.201 
14:35	26.1	26.1	26.1	67	16.7	1	3	112	0.00	30.201 
14:40	26.1	26.1	26.1	66	16.3	1	3	112	0.00	30.201 
14:45	26.4	26.4	26.4	66	16.6	0	3	112	0.00	30.201 
14:50	26.9	26.9	26.9	64	16.4	0	3	112	0.00	30.201 
14:55	26.6	26.6	26.6	65	16.4	2	5	112	0.00	30.201 
15:00	26.1	26.1	26.1	66	16.3	2	5	90	0.00	30.201 
15:05	26.0	26.0	26.0	67	16.6	2	5	90	0.00	30.201 
15:10	25.8	25.8	25.8	68	16.7	2	6	112	0.01	30.201 
15:15	26.0	26.0	26.0	68	16.9	1	3	112	0.00	30.202 
15:20	26.0	26.0	26.0	67	16.6	2	5	112	0.00	30.202 
15:25	26.1	26.1	26.1	67	16.7	0	1	112	0.00	30.202 
15:30	26.4	26.4	26.4	66	16.6	0	1	112	0.00	30.202 
15:35	26.7	26.7	26.7	64	16.2	0	1	112	0.00	30.202 
15:40	26.7	26.7	26.7	63	15.8	1	5	90	0.00	30.202 
15:45	26.6	26.6	26.6	65	16.4	1	6	90	0.00	30.201 
15:50	26.3	26.3	26.3	66	16.5	2	5	112	0.00	30.201 
15:55	25.7	25.7	25.7	66	15.9	3	6	112	0.00	30.201 
16:00	25.4	25.4	25.4	67	16.0	2	4	90	0.00	30.201 
16:05	25.4	25.4	25.4	67	16.0	2	5	90	0.00	30.201 
16:10	25.4	25.4	25.4	67	16.0	1	5	90	0.00	30.201 
16:15	25.4	25.4	25.4	66	15.7	1	3	90	0.00	30.204 
16:20	25.3	25.3	25.3	67	15.9	2	5	90	0.00	30.204 
16:25	25.4	25.4	25.4	66	15.7	2	5	112	0.00	30.204 
16:30	25.4	25.4	25.4	66	15.7	2	5	112	0.00	30.201 
16:35	25.4	25.4	25.4	67	16.0	2	5	112	0.00	30.201 
16:40	25.4	25.4	25.4	66	15.7	2	5	90	0.00	30.201 
16:45	25.3	25.3	25.3	65	15.2	2	4	90	0.00	30.196 
16:50	25.1	25.1	25.1	66	15.4	2	6	90	0.00	30.196 
16:55	25.3	25.3	25.3	67	15.9	2	5	90	0.00	30.196 
17:00	25.1	25.1	25.1	66	15.4	2	5	90	0.00	30.198 
17:05	25.0	25.0	25.0	65	14.9	2	6	90	0.00	30.198 
17:10	25.0	25.0	25.0	65	14.9	2	4	112	0.00	30.198 
17:15	24.8	24.8	24.8	66	15.1	2	4	90	0.00	30.201 
17:20	24.8	24.8	24.8	66	15.1	1	4	90	0.00	30.201 
17:25	24.8	24.8	24.8	65	14.7	1	5	90	0.00	30.201 
17:30	24.8	24.8	24.8	65	14.7	1	3	112	0.00	30.206 
17:35	24.8	24.8	24.8	65	14.7	1	3	112	0.00	30.206 
17:40	24.8	24.8	24.8	66	15.1	2	6	90	0.00	30.206 
17:45	24.7	24.7	24.7	65	14.6	1	5	90	0.00	30.207 
17:50	24.5	24.5	24.5	65	14.4	2	5	112	0.00	30.207 
17:55	24.4	24.4	24.4	65	14.3	2	5	112	0.00	30.207 
18:00	24.4	24.4	24.4	64	14.0	2	6	90	0.00	30.210 
18:05	24.2	24.2	24.2	64	13.8	2	4	90	0.00	30.210 
18:10	24.2	24.2	24.2	64	13.8	1	4	90	0.00	30.210 
18:15	24.2	24.2	24.2	65	14.2	1	4	90	0.00	30.221 
18:20	24.2	24.2	24.2	64	13.8	1	3	90	0.00	30.221 
18:25	24.1	24.1	24.1	64	13.7	0	1	90	0.00	30.221 
18:30	24.1	24.1	24.1	65	14.1	1	3	90	0.00	30.223 
18:35	24.1	24.1	24.1	64	13.7	2	6	112	0.00	30.223 
18:40	23.9	23.9	23.9	65	13.9	2	6	90	0.00	30.223 
18:45	23.8	23.8	23.8	65	13.8	1	4	90	0.00	30.218 
18:50	23.5	23.5	23.5	65	13.5	1	3	90	0.00	30.218 
18:55	23.3	23.3	23.3	65	13.3	0	2	90	0.00	30.218 
19:00	23.0	23.0	23.0	65	13.0	1	3	90	0.00	30.229 
19:05	22.9	22.9	22.9	66	13.3	1	2	90	0.00	30.229 
19:10	22.5	22.5	22.5	67	13.2	1	2	90	0.00	30.229 
19:15	22.4	22.4	22.4	67	13.1	0	1	90	0.00	30.229 
19:20	22.1	22.1	22.1	68	13.2	0	1	90	0.00	30.229 
19:25	21.8	21.8	21.8	69	13.2	0	1	90	0.00	30.229 
19:30	21.6	21.6	21.6	69	13.0	0	1	90	0.00	30.228 
19:35	21.3	21.3	21.3	69	12.7	0	1	90	0.00	30.228 
19:40	21.1	21.1	21.1	69	12.5	0	0	---	0.00	30.228 
19:45	20.6	20.6	20.6	70	12.4	0	0	---	0.00	30.229 
19:50	20.3	20.3	20.3	69	11.8	0	0	---	0.00	30.229 
19:55	19.9	19.9	19.9	70	11.7	0	0	---	0.00	30.229 
20:00	19.5	19.5	19.5	71	11.7	0	0	---	0.00	30.238 
20:05	19.2	19.2	19.2	71	11.4	0	0	---	0.00	30.238 
20:10	18.9	18.9	18.9	72	11.4	0	0	---	0.00	30.238 
20:15	18.4	18.4	18.4	72	10.9	0	0	---	0.00	30.237 
20:20	18.1	18.1	18.1	73	10.9	0	0	---	0.00	30.237 
20:25	17.7	17.7	17.7	74	10.8	0	0	---	0.00	30.237 
20:30	17.3	17.3	17.3	74	10.5	0	0	---	0.00	30.240 
20:35	17.0	17.0	17.0	74	10.2	0	0	---	0.00	30.240 
20:40	16.7	16.7	16.7	75	10.2	0	0	---	0.00	30.240 
20:45	16.5	16.5	16.5	76	10.3	0	0	---	0.00	30.242 
20:50	16.2	16.2	16.2	77	10.3	0	0	---	0.00	30.242 
20:55	16.1	16.1	16.1	78	10.5	0	0	---	0.00	30.242 
21:00	15.9	15.9	15.9	78	10.3	0	0	---	0.00	30.244 
21:05	15.7	15.7	15.7	79	10.4	0	0	---	0.00	30.244 
21:10	15.6	15.6	15.6	79	10.3	0	0	---	0.00	30.244 
21:15	15.4	15.4	15.4	80	10.4	0	0	---	0.00	30.242 
21:20	15.2	15.2	15.2	80	10.2	0	0	---	0.00	30.242 
21:25	14.9	14.9	14.9	81	10.1	0	0	---	0.00	30.242 
21:30	14.8	14.8	14.8	81	10.0	0	0	---	0.00	30.240 
21:35	14.6	14.6	14.6	81	9.9	0	0	---	0.00	30.240 
21:40	14.4	14.4	14.4	82	9.9	0	0	---	0.00	30.240 
21:45	14.3	14.3	14.3	82	9.8	0	0	---	0.00	30.236 
21:50	14.3	14.3	14.3	82	9.8	0	0	---	0.00	30.236 
21:55	14.3	14.3	14.3	83	10.1	0	0	---	0.00	30.236 
22:00	14.1	14.1	14.1	83	9.9	0	0	---	0.00	30.232 
22:05	14.0	14.0	14.0	83	9.8	0	0	---	0.00	30.232 
22:10	14.0	14.0	14.0	84	10.1	0	0	---	0.00	30.232 
22:15	14.0	14.0	14.0	84	10.1	0	0	---	0.00	30.234 
22:20	14.0	14.0	14.0	84	10.1	0	0	---	0.00	30.234 
22:25	13.8	13.8	13.8	84	9.9	0	0	---	0.00	30.234 
22:30	13.6	13.6	13.6	84	9.7	0	0	---	0.00	30.235 
22:35	13.6	13.6	13.6	84	9.7	0	0	---	0.00	30.235 
22:40	13.5	13.5	13.5	85	9.8	0	0	---	0.00	30.235 
22:45	13.3	13.3	13.3	85	9.7	0	0	---	0.00	30.233 
22:50	13.1	13.1	13.1	85	9.5	0	0	---	0.00	30.233 
22:55	12.9	12.9	12.9	85	9.3	0	0	---	0.00	30.233 
23:00	12.8	12.8	12.8	85	9.2	0	0	---	0.00	30.234 
23:05	12.6	12.6	12.6	85	9.0	0	0	---	0.00	30.234 
23:10	12.4	12.4	12.4	85	8.8	0	0	---	0.00	30.234 
23:15	12.1	12.1	12.1	85	8.5	0	0	---	0.00	30.230 
23:20	11.9	11.9	11.9	85	8.3	0	0	---	0.00	30.230 
23:25	11.6	11.6	11.6	85	8.0	0	0	---	0.00	30.230 
23:30	11.4	11.4	11.4	85	7.8	0	0	---	0.00	30.231 
23:35	11.2	11.2	11.2	85	7.6	0	0	---	0.00	30.231 
23:40	11.2	11.2	11.2	85	7.6	0	0	---	0.00	30.231 
23:45	11.2	11.2	11.2	85	7.6	0	0	---	0.00	30.226 
23:50	11.2	11.2	11.2	85	7.6	0	0	---	0.00	30.226 
23:55	11.2	11.2	11.2	85	7.6	0	0	---	0.00	30.226 

CoCoRaHS
IN-AL-39
A2 Web Hosting
Creative Commons License
GoDaddy
search engine by freefind advanced

loaded 2018-11-20 07:12:09 • last modified 2010-11-18 10:43:29
Privacy PolicyDisclaimer
• wx.awcolley.com is powered by PmWiki v.2002016 •
• all content (unless otherwise noted) © 2018 A W Colley